sensor_id;sensor_type;location;lat;lon;timestamp;pressure;altitude;pressure_sealevel;temperature;humidity
80103;BME280;69865;47.648;19.030;2023-07-29T00:00:13;100041.81;;;18.24;97.69
80103;BME280;69865;47.648;19.030;2023-07-29T00:00:45;100039.69;;;18.19;97.51
80103;BME280;69865;47.648;19.030;2023-07-29T00:01:17;100036.97;;;18.13;97.85
80103;BME280;69865;47.648;19.030;2023-07-29T00:01:49;100040.47;;;18.13;98.00
80103;BME280;69865;47.648;19.030;2023-07-29T00:02:21;100042.31;;;18.13;98.17
80103;BME280;69865;47.648;19.030;2023-07-29T00:02:53;100033.69;;;18.11;97.98
80103;BME280;69865;47.648;19.030;2023-07-29T00:03:26;100034.53;;;18.11;97.96
80103;BME280;69865;47.648;19.030;2023-07-29T00:03:58;100037.97;;;18.12;97.52
80103;BME280;69865;47.648;19.030;2023-07-29T00:04:30;100040.66;;;18.12;97.79
80103;BME280;69865;47.648;19.030;2023-07-29T00:05:03;100041.91;;;18.16;97.65
80103;BME280;69865;47.648;19.030;2023-07-29T00:05:35;100037.63;;;18.15;97.44
80103;BME280;69865;47.648;19.030;2023-07-29T00:06:07;100039.09;;;18.17;97.37
80103;BME280;69865;47.648;19.030;2023-07-29T00:06:39;100038.06;;;18.18;97.30
80103;BME280;69865;47.648;19.030;2023-07-29T00:07:11;100038.63;;;18.14;97.66
80103;BME280;69865;47.648;19.030;2023-07-29T00:07:43;100037.97;;;18.12;98.21
80103;BME280;69865;47.648;19.030;2023-07-29T00:08:15;100043.31;;;18.12;98.41
80103;BME280;69865;47.648;19.030;2023-07-29T00:08:47;100042.88;;;18.08;98.33
80103;BME280;69865;47.648;19.030;2023-07-29T00:09:20;100041.25;;;18.07;98.69
80103;BME280;69865;47.648;19.030;2023-07-29T00:09:52;100037.91;;;18.05;98.87
80103;BME280;69865;47.648;19.030;2023-07-29T00:10:24;100041.16;;;18.01;99.07
80103;BME280;69865;47.648;19.030;2023-07-29T00:10:56;100041.34;;;17.99;99.04
80103;BME280;69865;47.648;19.030;2023-07-29T00:11:28;100036.19;;;17.98;99.22
80103;BME280;69865;47.648;19.030;2023-07-29T00:12:00;100035.38;;;17.97;99.38
80103;BME280;69865;47.648;19.030;2023-07-29T00:12:32;100036.59;;;17.95;99.33
80103;BME280;69865;47.648;19.030;2023-07-29T00:13:06;100035.94;;;17.93;99.59
80103;BME280;69865;47.648;19.030;2023-07-29T00:13:39;100033.66;;;17.90;99.75
80103;BME280;69865;47.648;19.030;2023-07-29T00:14:11;100029.31;;;17.89;98.87
80103;BME280;69865;47.648;19.030;2023-07-29T00:14:43;100031.16;;;17.88;98.76
80103;BME280;69865;47.648;19.030;2023-07-29T00:15:15;100030.97;;;17.90;98.72
80103;BME280;69865;47.648;19.030;2023-07-29T00:15:47;100033.66;;;17.90;98.44
80103;BME280;69865;47.648;19.030;2023-07-29T00:16:19;100034.47;;;17.90;98.76
80103;BME280;69865;47.648;19.030;2023-07-29T00:16:51;100033.81;;;17.88;97.73
80103;BME280;69865;47.648;19.030;2023-07-29T00:17:23;100033.66;;;17.90;97.58
80103;BME280;69865;47.648;19.030;2023-07-29T00:17:55;100036.94;;;17.92;97.50
80103;BME280;69865;47.648;19.030;2023-07-29T00:18:28;100040.63;;;17.91;97.72
80103;BME280;69865;47.648;19.030;2023-07-29T00:19:00;100036.47;;;17.88;97.94
80103;BME280;69865;47.648;19.030;2023-07-29T00:19:32;100030.53;;;17.86;98.59
80103;BME280;69865;47.648;19.030;2023-07-29T00:20:05;100036.88;;;17.85;98.96
80103;BME280;69865;47.648;19.030;2023-07-29T00:20:40;100040.28;;;17.79;99.37
80103;BME280;69865;47.648;19.030;2023-07-29T00:21:12;100035.41;;;17.82;98.94
80103;BME280;69865;47.648;19.030;2023-07-29T00:21:44;100042.38;;;17.83;98.55
80103;BME280;69865;47.648;19.030;2023-07-29T00:22:16;100038.63;;;17.78;99.20
80103;BME280;69865;47.648;19.030;2023-07-29T00:22:48;100042.13;;;17.78;98.66
80103;BME280;69865;47.648;19.030;2023-07-29T00:23:20;100045.78;;;17.77;99.06
80103;BME280;69865;47.648;19.030;2023-07-29T00:23:52;100038.72;;;17.70;99.00
80103;BME280;69865;47.648;19.030;2023-07-29T00:24:24;100043.69;;;17.73;99.16
80103;BME280;69865;47.648;19.030;2023-07-29T00:24:56;100042.59;;;17.67;99.69
80103;BME280;69865;47.648;19.030;2023-07-29T00:25:28;100052.06;;;17.70;99.43
80103;BME280;69865;47.648;19.030;2023-07-29T00:26:01;100048.94;;;17.66;100.00
80103;BME280;69865;47.648;19.030;2023-07-29T00:26:33;100037.44;;;17.66;99.71
80103;BME280;69865;47.648;19.030;2023-07-29T00:27:05;100045.44;;;17.66;99.69
80103;BME280;69865;47.648;19.030;2023-07-29T00:27:37;100042.13;;;17.64;100.00
80103;BME280;69865;47.648;19.030;2023-07-29T00:28:11;100046.81;;;17.62;99.88
80103;BME280;69865;47.648;19.030;2023-07-29T00:28:43;100043.50;;;17.60;99.90
80103;BME280;69865;47.648;19.030;2023-07-29T00:29:15;100044.72;;;17.57;100.00
80103;BME280;69865;47.648;19.030;2023-07-29T00:29:48;100053.22;;;17.53;100.00
80103;BME280;69865;47.648;19.030;2023-07-29T00:30:20;100044.16;;;17.47;100.00
80103;BME280;69865;47.648;19.030;2023-07-29T00:30:52;100054.81;;;17.47;100.00
80103;BME280;69865;47.648;19.030;2023-07-29T00:31:24;100046.97;;;17.46;100.00
80103;BME280;69865;47.648;19.030;2023-07-29T00:31:56;100053.22;;;17.38;100.00
80103;BME280;69865;47.648;19.030;2023-07-29T00:32:29;100053.94;;;17.32;100.00
80103;BME280;69865;47.648;19.030;2023-07-29T00:33:02;100049.28;;;17.34;100.00
80103;BME280;69865;47.648;19.030;2023-07-29T00:33:34;100057.09;;;17.35;100.00
80103;BME280;69865;47.648;19.030;2023-07-29T00:34:06;100054.16;;;17.30;100.00
80103;BME280;69865;47.648;19.030;2023-07-29T00:34:38;100054.78;;;17.32;100.00
80103;BME280;69865;47.648;19.030;2023-07-29T00:35:10;100047.44;;;17.34;100.00
80103;BME280;69865;47.648;19.030;2023-07-29T00:35:42;100051.50;;;17.30;100.00
80103;BME280;69865;47.648;19.030;2023-07-29T00:36:15;100054.97;;;17.31;100.00
80103;BME280;69865;47.648;19.030;2023-07-29T00:36:47;100052.13;;;17.32;100.00
80103;BME280;69865;47.648;19.030;2023-07-29T00:37:19;100047.00;;;17.31;100.00
80103;BME280;69865;47.648;19.030;2023-07-29T00:37:51;100043.22;;;17.25;100.00
80103;BME280;69865;47.648;19.030;2023-07-29T00:38:23;100045.41;;;17.22;100.00
80103;BME280;69865;47.648;19.030;2023-07-29T00:38:55;100047.72;;;17.25;100.00
80103;BME280;69865;47.648;19.030;2023-07-29T00:39:27;100049.00;;;17.29;100.00
80103;BME280;69865;47.648;19.030;2023-07-29T00:39:59;100047.34;;;17.28;100.00
80103;BME280;69865;47.648;19.030;2023-07-29T00:40:35;100048.72;;;17.24;100.00
80103;BME280;69865;47.648;19.030;2023-07-29T00:41:08;100046.25;;;17.22;100.00
80103;BME280;69865;47.648;19.030;2023-07-29T00:41:40;100048.53;;;17.25;100.00
80103;BME280;69865;47.648;19.030;2023-07-29T00:42:12;100044.66;;;17.28;100.00
80103;BME280;69865;47.648;19.030;2023-07-29T00:42:44;100051.50;;;17.30;100.00
80103;BME280;69865;47.648;19.030;2023-07-29T00:43:17;100039.72;;;17.25;100.00
80103;BME280;69865;47.648;19.030;2023-07-29T00:43:49;100048.72;;;17.24;100.00
80103;BME280;69865;47.648;19.030;2023-07-29T00:44:21;100043.38;;;17.24;100.00
80103;BME280;69865;47.648;19.030;2023-07-29T00:44:54;100042.22;;;17.26;100.00
80103;BME280;69865;47.648;19.030;2023-07-29T00:45:27;100038.56;;;17.27;100.00
80103;BME280;69865;47.648;19.030;2023-07-29T00:46:00;100038.19;;;17.30;100.00
80103;BME280;69865;47.648;19.030;2023-07-29T00:46:34;100039.84;;;17.31;100.00
80103;BME280;69865;47.648;19.030;2023-07-29T00:47:08;100038.63;;;17.34;100.00
80103;BME280;69865;47.648;19.030;2023-07-29T00:47:41;100041.66;;;17.31;100.00
80103;BME280;69865;47.648;19.030;2023-07-29T00:48:14;100039.19;;;17.29;100.00
80103;BME280;69865;47.648;19.030;2023-07-29T00:48:46;100041.00;;;17.29;100.00
80103;BME280;69865;47.648;19.030;2023-07-29T00:49:19;100036.34;;;17.31;100.00
80103;BME280;69865;47.648;19.030;2023-07-29T00:49:52;100049.91;;;17.36;100.00
80103;BME280;69865;47.648;19.030;2023-07-29T00:50:24;100037.81;;;17.33;100.00
80103;BME280;69865;47.648;19.030;2023-07-29T00:50:57;100038.63;;;17.34;100.00
80103;BME280;69865;47.648;19.030;2023-07-29T00:51:29;100043.59;;;17.37;100.00
80103;BME280;69865;47.648;19.030;2023-07-29T00:52:01;100041.91;;;17.36;100.00
80103;BME280;69865;47.648;19.030;2023-07-29T00:52:33;100039.09;;;17.37;100.00
80103;BME280;69865;47.648;19.030;2023-07-29T00:53:05;100043.22;;;17.40;100.00
80103;BME280;69865;47.648;19.030;2023-07-29T00:53:38;100038.09;;;17.38;100.00
80103;BME280;69865;47.648;19.030;2023-07-29T00:54:10;100037.72;;;17.42;100.00
80103;BME280;69865;47.648;19.030;2023-07-29T00:54:42;100038.53;;;17.42;100.00
80103;BME280;69865;47.648;19.030;2023-07-29T00:55:14;100035.88;;;17.42;100.00
80103;BME280;69865;47.648;19.030;2023-07-29T00:55:46;100040.28;;;17.35;100.00
80103;BME280;69865;47.648;19.030;2023-07-29T00:56:18;100034.97;;;17.35;100.00
80103;BME280;69865;47.648;19.030;2023-07-29T00:56:51;100035.97;;;17.34;100.00
80103;BME280;69865;47.648;19.030;2023-07-29T00:57:23;100036.81;;;17.34;100.00
80103;BME280;69865;47.648;19.030;2023-07-29T00:57:55;100033.94;;;17.36;100.00
80103;BME280;69865;47.648;19.030;2023-07-29T00:58:29;100028.81;;;17.34;100.00
80103;BME280;69865;47.648;19.030;2023-07-29T00:59:02;100034.13;;;17.34;100.00
80103;BME280;69865;47.648;19.030;2023-07-29T00:59:35;100032.47;;;17.33;100.00
80103;BME280;69865;47.648;19.030;2023-07-29T01:00:08;100035.13;;;17.33;100.00
80103;BME280;69865;47.648;19.030;2023-07-29T01:00:41;100034.97;;;17.35;100.00
80103;BME280;69865;47.648;19.030;2023-07-29T01:01:14;100028.16;;;17.32;100.00
80103;BME280;69865;47.648;19.030;2023-07-29T01:01:46;100026.88;;;17.28;100.00
80103;BME280;69865;47.648;19.030;2023-07-29T01:02:18;100032.41;;;17.27;100.00
80103;BME280;69865;47.648;19.030;2023-07-29T01:02:50;100034.22;;;17.26;100.00
80103;BME280;69865;47.648;19.030;2023-07-29T01:03:22;100028.91;;;17.26;100.00
80103;BME280;69865;47.648;19.030;2023-07-29T01:03:55;100032.56;;;17.25;100.00
80103;BME280;69865;47.648;19.030;2023-07-29T01:04:27;100028.25;;;17.24;100.00
80103;BME280;69865;47.648;19.030;2023-07-29T01:05:00;100033.78;;;17.23;100.00
80103;BME280;69865;47.648;19.030;2023-07-29T01:05:39;100038.25;;;17.22;100.00
80103;BME280;69865;47.648;19.030;2023-07-29T01:06:20;100043.13;;;17.19;100.00
80103;BME280;69865;47.648;19.030;2023-07-29T01:07:03;100032.47;;;17.19;100.00
80103;BME280;69865;47.648;19.030;2023-07-29T01:07:46;100035.50;;;17.16;100.00
80103;BME280;69865;47.648;19.030;2023-07-29T01:08:25;100040.00;;;17.15;100.00
80103;BME280;69865;47.648;19.030;2023-07-29T01:09:02;100041.84;;;17.15;100.00
80103;BME280;69865;47.648;19.030;2023-07-29T01:09:43;100036.88;;;17.12;100.00
80103;BME280;69865;47.648;19.030;2023-07-29T01:10:29;100038.72;;;17.11;100.00
80103;BME280;69865;47.648;19.030;2023-07-29T01:11:11;100032.56;;;17.11;100.00
80103;BME280;69865;47.648;19.030;2023-07-29T01:11:55;100033.41;;;17.11;100.00
80103;BME280;69865;47.648;19.030;2023-07-29T01:12:36;100036.88;;;17.12;100.00
80103;BME280;69865;47.648;19.030;2023-07-29T01:13:19;100034.03;;;17.13;100.00
80103;BME280;69865;47.648;19.030;2023-07-29T01:14:02;100024.22;;;17.14;100.00
80103;BME280;69865;47.648;19.030;2023-07-29T01:14:41;100029.53;;;17.14;100.00
80103;BME280;69865;47.648;19.030;2023-07-29T01:15:21;100027.69;;;17.14;100.00
80103;BME280;69865;47.648;19.030;2023-07-29T01:16:00;100028.91;;;17.12;100.00
80103;BME280;69865;47.648;19.030;2023-07-29T01:16:39;100030.53;;;17.13;100.00
80103;BME280;69865;47.648;19.030;2023-07-29T01:17:20;100035.22;;;17.11;100.00
80103;BME280;69865;47.648;19.030;2023-07-29T01:17:55;100027.63;;;17.08;100.00
80103;BME280;69865;47.648;19.030;2023-07-29T01:18:32;100036.78;;;17.05;100.00
80103;BME280;69865;47.648;19.030;2023-07-29T01:19:27;100034.78;;;17.07;100.00
80103;BME280;69865;47.648;19.030;2023-07-29T01:20:08;100040.56;;;17.11;100.00
80103;BME280;69865;47.648;19.030;2023-07-29T01:20:43;100044.03;;;17.11;100.00
80103;BME280;69865;47.648;19.030;2023-07-29T01:21:18;100037.88;;;17.11;100.00
80103;BME280;69865;47.648;19.030;2023-07-29T01:21:51;100040.34;;;17.12;100.00
80103;BME280;69865;47.648;19.030;2023-07-29T01:22:24;100032.19;;;17.14;100.00
80103;BME280;69865;47.648;19.030;2023-07-29T01:22:56;100030.53;;;17.13;100.00
80103;BME280;69865;47.648;19.030;2023-07-29T01:23:30;100042.22;;;17.12;100.00
80103;BME280;69865;47.648;19.030;2023-07-29T01:24:03;100038.88;;;17.10;100.00
80103;BME280;69865;47.648;19.030;2023-07-29T01:24:35;100032.94;;;17.08;100.00
80103;BME280;69865;47.648;19.030;2023-07-29T01:25:07;100035.78;;;17.06;100.00
80103;BME280;69865;47.648;19.030;2023-07-29T01:25:40;100035.09;;;17.04;100.00
80103;BME280;69865;47.648;19.030;2023-07-29T01:26:12;100037.78;;;17.04;100.00
80103;BME280;69865;47.648;19.030;2023-07-29T01:26:44;100039.44;;;17.05;100.00
80103;BME280;69865;47.648;19.030;2023-07-29T01:27:16;100035.94;;;17.05;100.00
80103;BME280;69865;47.648;19.030;2023-07-29T01:27:49;100040.25;;;17.06;100.00
80103;BME280;69865;47.648;19.030;2023-07-29T01:28:22;100036.78;;;17.05;100.00
80103;BME280;69865;47.648;19.030;2023-07-29T01:28:55;100033.09;;;17.06;100.00
80103;BME280;69865;47.648;19.030;2023-07-29T01:29:27;100045.75;;;17.04;100.00
80103;BME280;69865;47.648;19.030;2023-07-29T01:30:01;100039.25;;;17.07;100.00
80103;BME280;69865;47.648;19.030;2023-07-29T01:30:39;100036.41;;;17.08;100.00
80103;BME280;69865;47.648;19.030;2023-07-29T01:31:16;100038.06;;;17.09;100.00
80103;BME280;69865;47.648;19.030;2023-07-29T01:31:54;100034.41;;;17.10;100.00
80103;BME280;69865;47.648;19.030;2023-07-29T01:32:35;100039.34;;;17.13;100.00
80103;BME280;69865;47.648;19.030;2023-07-29T01:33:16;100033.41;;;17.11;100.00
80103;BME280;69865;47.648;19.030;2023-07-29T01:33:56;100038.53;;;17.13;100.00
80103;BME280;69865;47.648;19.030;2023-07-29T01:34:37;100033.03;;;17.14;100.00
80103;BME280;69865;47.648;19.030;2023-07-29T01:35:19;100031.19;;;17.15;100.00
80103;BME280;69865;47.648;19.030;2023-07-29T01:35:58;100038.34;;;17.14;100.00
80103;BME280;69865;47.648;19.030;2023-07-29T01:36:34;100027.69;;;17.14;100.00
80103;BME280;69865;47.648;19.030;2023-07-29T01:37:14;100035.31;;;17.17;100.00
80103;BME280;69865;47.648;19.030;2023-07-29T01:37:51;100027.50;;;17.16;100.00
80103;BME280;69865;47.648;19.030;2023-07-29T01:38:28;100031.66;;;17.18;99.99
80103;BME280;69865;47.648;19.030;2023-07-29T01:39:02;100037.97;;;17.17;99.98
80103;BME280;69865;47.648;19.030;2023-07-29T01:39:37;100031.00;;;17.16;100.00
80103;BME280;69865;47.648;19.030;2023-07-29T01:40:10;100036.88;;;17.12;99.76
80103;BME280;69865;47.648;19.030;2023-07-29T01:40:43;100037.06;;;17.10;99.78
80103;BME280;69865;47.648;19.030;2023-07-29T01:41:17;100035.41;;;17.09;99.66
80103;BME280;69865;47.648;19.030;2023-07-29T01:41:51;100022.38;;;17.00;99.66
80103;BME280;69865;47.648;19.030;2023-07-29T01:42:23;100032.00;;;17.01;99.94
80103;BME280;69865;47.648;19.030;2023-07-29T01:42:58;100034.47;;;17.02;100.00
80103;BME280;69865;47.648;19.030;2023-07-29T01:43:31;100031.44;;;17.05;99.77
80103;BME280;69865;47.648;19.030;2023-07-29T01:44:04;100035.94;;;17.05;99.75
80103;BME280;69865;47.648;19.030;2023-07-29T01:44:38;100032.94;;;17.08;99.34
80103;BME280;69865;47.648;19.030;2023-07-29T01:45:10;100026.97;;;17.06;99.55
80103;BME280;69865;47.648;19.030;2023-07-29T01:45:42;100035.78;;;17.06;99.80
80103;BME280;69865;47.648;19.030;2023-07-29T01:46:15;100032.94;;;17.08;99.59
80103;BME280;69865;47.648;19.030;2023-07-29T01:46:47;100026.41;;;17.10;99.84
80103;BME280;69865;47.648;19.030;2023-07-29T01:47:21;100030.91;;;17.10;99.87
80103;BME280;69865;47.648;19.030;2023-07-29T01:47:53;100034.41;;;17.10;99.81
80103;BME280;69865;47.648;19.030;2023-07-29T01:48:25;100033.56;;;17.10;99.61
80103;BME280;69865;47.648;19.030;2023-07-29T01:48:57;100034.56;;;17.09;100.00
80103;BME280;69865;47.648;19.030;2023-07-29T01:49:29;100028.41;;;17.08;99.60
80103;BME280;69865;47.648;19.030;2023-07-29T01:50:01;100033.94;;;17.07;99.79
80103;BME280;69865;47.648;19.030;2023-07-29T01:50:33;100034.94;;;17.06;99.90
80103;BME280;69865;47.648;19.030;2023-07-29T01:51:05;100034.47;;;17.02;100.00
80103;BME280;69865;47.648;19.030;2023-07-29T01:51:37;100032.00;;;17.01;100.00
80103;BME280;69865;47.648;19.030;2023-07-29T01:52:10;100029.25;;;16.94;100.00
80103;BME280;69865;47.648;19.030;2023-07-29T01:52:42;100027.22;;;16.96;100.00
80103;BME280;69865;47.648;19.030;2023-07-29T01:53:14;100026.56;;;16.94;100.00
80103;BME280;69865;47.648;19.030;2023-07-29T01:53:46;100029.25;;;16.94;100.00
80103;BME280;69865;47.648;19.030;2023-07-29T01:54:20;100025.91;;;16.92;100.00
80103;BME280;69865;47.648;19.030;2023-07-29T01:54:52;100028.13;;;16.88;100.00
80103;BME280;69865;47.648;19.030;2023-07-29T01:55:24;100028.78;;;16.90;100.00
80103;BME280;69865;47.648;19.030;2023-07-29T01:55:56;100034.94;;;16.91;100.00
80103;BME280;69865;47.648;19.030;2023-07-29T01:56:28;100029.06;;;16.96;100.00
80103;BME280;69865;47.648;19.030;2023-07-29T01:57:00;100030.25;;;16.93;100.00
80103;BME280;69865;47.648;19.030;2023-07-29T01:57:32;100033.56;;;16.95;100.00
80103;BME280;69865;47.648;19.030;2023-07-29T01:58:04;100030.44;;;16.92;100.00
80103;BME280;69865;47.648;19.030;2023-07-29T01:58:36;100035.75;;;16.92;100.00
80103;BME280;69865;47.648;19.030;2023-07-29T01:59:08;100026.75;;;16.92;100.00
80103;BME280;69865;47.648;19.030;2023-07-29T01:59:40;100030.59;;;16.90;100.00
80103;BME280;69865;47.648;19.030;2023-07-29T02:00:13;100025.66;;;16.87;100.00
80103;BME280;69865;47.648;19.030;2023-07-29T02:00:45;100027.13;;;16.89;100.00
80103;BME280;69865;47.648;19.030;2023-07-29T02:01:17;100033.28;;;16.90;100.00
80103;BME280;69865;47.648;19.030;2023-07-29T02:01:49;100027.94;;;16.90;100.00
80103;BME280;69865;47.648;19.030;2023-07-29T02:02:21;100029.16;;;16.87;100.00
80103;BME280;69865;47.648;19.030;2023-07-29T02:02:53;100023.00;;;16.87;100.00
80103;BME280;69865;47.648;19.030;2023-07-29T02:03:25;100031.25;;;16.92;100.00
80103;BME280;69865;47.648;19.030;2023-07-29T02:03:58;100032.44;;;16.89;100.00
80103;BME280;69865;47.648;19.030;2023-07-29T02:04:30;100034.09;;;16.90;100.00
80103;BME280;69865;47.648;19.030;2023-07-29T02:05:02;100030.44;;;16.92;100.00
80103;BME280;69865;47.648;19.030;2023-07-29T02:05:34;100026.75;;;16.92;100.00
80103;BME280;69865;47.648;19.030;2023-07-29T02:06:06;100025.91;;;16.92;99.87
80103;BME280;69865;47.648;19.030;2023-07-29T02:06:38;100031.06;;;16.94;100.00
80103;BME280;69865;47.648;19.030;2023-07-29T02:07:10;100032.53;;;16.96;100.00
80103;BME280;69865;47.648;19.030;2023-07-29T02:07:42;100032.72;;;16.95;100.00
80103;BME280;69865;47.648;19.030;2023-07-29T02:08:14;100025.38;;;16.97;99.88
80103;BME280;69865;47.648;19.030;2023-07-29T02:08:47;100031.91;;;16.94;99.85
80103;BME280;69865;47.648;19.030;2023-07-29T02:09:20;100021.63;;;16.91;100.00
80103;BME280;69865;47.648;19.030;2023-07-29T02:09:52;100021.63;;;16.91;99.95
80103;BME280;69865;47.648;19.030;2023-07-29T02:10:24;100028.78;;;16.90;100.00
80103;BME280;69865;47.648;19.030;2023-07-29T02:10:56;100022.63;;;16.90;100.00
80103;BME280;69865;47.648;19.030;2023-07-29T02:11:28;100022.78;;;16.88;99.95
80103;BME280;69865;47.648;19.030;2023-07-29T02:12:00;100027.66;;;16.85;100.00
80103;BME280;69865;47.648;19.030;2023-07-29T02:12:32;100028.84;;;16.82;100.00
80103;BME280;69865;47.648;19.030;2023-07-29T02:13:04;100023.34;;;16.84;100.00
80103;BME280;69865;47.648;19.030;2023-07-29T02:13:37;100024.38;;;16.83;100.00
80103;BME280;69865;47.648;19.030;2023-07-29T02:14:09;100023.69;;;16.81;100.00
80103;BME280;69865;47.648;19.030;2023-07-29T02:14:41;100025.06;;;16.77;100.00
80103;BME280;69865;47.648;19.030;2023-07-29T02:15:13;100025.91;;;16.77;100.00
80103;BME280;69865;47.648;19.030;2023-07-29T02:15:45;100017.91;;;16.77;100.00
80103;BME280;69865;47.648;19.030;2023-07-29T02:16:17;100027.09;;;16.75;100.00
80103;BME280;69865;47.648;19.030;2023-07-29T02:16:49;100029.75;;;16.75;100.00
80103;BME280;69865;47.648;19.030;2023-07-29T02:17:21;100027.09;;;16.75;100.00
80103;BME280;69865;47.648;19.030;2023-07-29T02:17:53;100025.28;;;16.75;100.00
80103;BME280;69865;47.648;19.030;2023-07-29T02:18:25;100022.59;;;16.75;100.00
80103;BME280;69865;47.648;19.030;2023-07-29T02:18:57;100030.59;;;16.75;100.00
80103;BME280;69865;47.648;19.030;2023-07-29T02:19:29;100035.72;;;16.77;100.00
80103;BME280;69865;47.648;19.030;2023-07-29T02:20:02;100039.03;;;16.79;100.00
80103;BME280;69865;47.648;19.030;2023-07-29T02:20:34;100038.38;;;16.77;100.00
80103;BME280;69865;47.648;19.030;2023-07-29T02:21:06;100040.03;;;16.78;100.00
80103;BME280;69865;47.648;19.030;2023-07-29T02:21:38;100047.19;;;16.77;100.00
80103;BME280;69865;47.648;19.030;2023-07-29T02:22:12;100036.53;;;16.77;100.00
80103;BME280;69865;47.648;19.030;2023-07-29T02:22:45;100043.88;;;16.75;99.89
80103;BME280;69865;47.648;19.030;2023-07-29T02:23:17;100043.41;;;16.72;100.00
80103;BME280;69865;47.648;19.030;2023-07-29T02:23:49;100046.25;;;16.70;99.97
80103;BME280;69865;47.648;19.030;2023-07-29T02:24:22;100044.88;;;16.74;99.91
80103;BME280;69865;47.648;19.030;2023-07-29T02:24:55;100051.66;;;16.77;99.61
80103;BME280;69865;47.648;19.030;2023-07-29T02:25:27;100046.00;;;16.80;99.47
80103;BME280;69865;47.648;19.030;2023-07-29T02:25:59;100044.34;;;16.79;99.39
80103;BME280;69865;47.648;19.030;2023-07-29T02:26:31;100043.34;;;16.80;99.88
80103;BME280;69865;47.648;19.030;2023-07-29T02:27:04;100042.69;;;16.78;99.79
80103;BME280;69865;47.648;19.030;2023-07-29T02:27:36;100035.06;;;16.75;99.86
80103;BME280;69865;47.648;19.030;2023-07-29T02:28:08;100040.84;;;16.78;99.40
80103;BME280;69865;47.648;19.030;2023-07-29T02:28:41;100043.88;;;16.75;99.54
80103;BME280;69865;47.648;19.030;2023-07-29T02:29:13;100035.06;;;16.75;100.00
80103;BME280;69865;47.648;19.030;2023-07-29T02:29:45;100039.72;;;16.73;100.00
80103;BME280;69865;47.648;19.030;2023-07-29T02:30:17;100037.44;;;16.70;100.00
80103;BME280;69865;47.648;19.030;2023-07-29T02:31:09;100029.81;;;16.67;100.00
80103;BME280;69865;47.648;19.030;2023-07-29T02:31:42;100035.50;;;16.64;100.00
80103;BME280;69865;47.648;19.030;2023-07-29T02:32:14;100038.16;;;16.64;100.00
80103;BME280;69865;47.648;19.030;2023-07-29T02:32:46;100030.72;;;16.59;100.00
80103;BME280;69865;47.648;19.030;2023-07-29T02:33:18;100036.22;;;16.58;100.00
80103;BME280;69865;47.648;19.030;2023-07-29T02:33:50;100035.72;;;16.54;100.00
80103;BME280;69865;47.648;19.030;2023-07-29T02:34:23;100031.75;;;16.50;100.00
80103;BME280;69865;47.648;19.030;2023-07-29T02:34:55;100036.72;;;16.53;100.00
80103;BME280;69865;47.648;19.030;2023-07-29T02:35:27;100042.03;;;16.53;100.00
80103;BME280;69865;47.648;19.030;2023-07-29T02:36:00;100035.25;;;16.51;100.00
80103;BME280;69865;47.648;19.030;2023-07-29T02:36:32;100030.47;;;16.46;100.00
80103;BME280;69865;47.648;19.030;2023-07-29T02:37:04;100038.44;;;16.46;100.00
80103;BME280;69865;47.648;19.030;2023-07-29T02:37:36;100036.13;;;16.43;100.00
80103;BME280;69865;47.648;19.030;2023-07-29T02:38:08;100037.97;;;16.42;100.00
80103;BME280;69865;47.648;19.030;2023-07-29T02:38:40;100031.81;;;16.42;100.00
80103;BME280;69865;47.648;19.030;2023-07-29T02:39:12;100038.31;;;16.39;100.00
80103;BME280;69865;47.648;19.030;2023-07-29T02:39:46;100038.50;;;16.38;100.00
80103;BME280;69865;47.648;19.030;2023-07-29T02:40:18;100040.31;;;16.37;100.00
80103;BME280;69865;47.648;19.030;2023-07-29T02:40:50;100035.19;;;16.36;100.00
80103;BME280;69865;47.648;19.030;2023-07-29T02:41:22;100036.84;;;16.37;100.00
80103;BME280;69865;47.648;19.030;2023-07-29T02:41:54;100037.19;;;16.34;100.00
80103;BME280;69865;47.648;19.030;2023-07-29T02:42:26;100036.56;;;16.32;100.00
80103;BME280;69865;47.648;19.030;2023-07-29T02:42:58;100037.91;;;16.28;100.00
80103;BME280;69865;47.648;19.030;2023-07-29T02:43:30;100049.53;;;16.27;100.00
80103;BME280;69865;47.648;19.030;2023-07-29T02:44:02;100039.06;;;16.25;100.00
80103;BME280;69865;47.648;19.030;2023-07-29T02:44:34;100044.59;;;16.24;100.00
80103;BME280;69865;47.648;19.030;2023-07-29T02:45:07;100041.97;;;16.16;100.00
80103;BME280;69865;47.648;19.030;2023-07-29T02:45:40;100040.31;;;16.15;100.00
80103;BME280;69865;47.648;19.030;2023-07-29T02:46:12;100042.16;;;16.14;100.00
80103;BME280;69865;47.648;19.030;2023-07-29T02:46:44;100038.84;;;16.12;100.00
80103;BME280;69865;47.648;19.030;2023-07-29T02:47:17;100043.13;;;16.13;100.00
80103;BME280;69865;47.648;19.030;2023-07-29T02:47:49;100043.97;;;16.14;100.00
80103;BME280;69865;47.648;19.030;2023-07-29T02:48:21;100039.84;;;16.11;100.00
80103;BME280;69865;47.648;19.030;2023-07-29T02:48:53;100050.63;;;16.10;100.00
80103;BME280;69865;47.648;19.030;2023-07-29T02:49:25;100044.69;;;16.08;100.00
80103;BME280;69865;47.648;19.030;2023-07-29T02:49:57;100047.66;;;16.05;100.00
80103;BME280;69865;47.648;19.030;2023-07-29T02:50:29;100045.00;;;16.05;100.00